sensor_id;sensor_type;location;lat;lon;timestamp;pressure;altitude;pressure_sealevel;temperature;humidity
550;BME280;20066;48.764;9.176;2023-03-15T00:00:00;97785.75;;;5.22;70.84
550;BME280;20066;48.764;9.176;2023-03-15T00:02:28;97801.78;;;4.80;70.93
550;BME280;20066;48.764;9.176;2023-03-15T00:04:59;97809.22;;;5.13;69.62
550;BME280;20066;48.764;9.176;2023-03-15T00:07:27;97807.19;;;5.29;68.61
550;BME280;20066;48.764;9.176;2023-03-15T00:09:55;97820.63;;;5.36;70.09
550;BME280;20066;48.764;9.176;2023-03-15T00:12:23;97826.13;;;5.24;67.94
550;BME280;20066;48.764;9.176;2023-03-15T00:14:51;97840.72;;;5.07;68.15
550;BME280;20066;48.764;9.176;2023-03-15T00:17:19;97838.47;;;4.10;73.85
550;BME280;20066;48.764;9.176;2023-03-15T00:19:48;97855.94;;;5.07;70.06
550;BME280;20066;48.764;9.176;2023-03-15T00:22:17;97864.94;;;5.44;68.48
550;BME280;20066;48.764;9.176;2023-03-15T00:24:48;97864.94;;;5.22;67.56
550;BME280;20066;48.764;9.176;2023-03-15T00:27:16;97866.59;;;5.53;67.50
550;BME280;20066;48.764;9.176;2023-03-15T00:29:44;97867.53;;;4.95;68.68
550;BME280;20066;48.764;9.176;2023-03-15T00:32:12;97874.63;;;4.30;71.51
550;BME280;20066;48.764;9.176;2023-03-15T00:34:40;97873.41;;;4.43;70.80
550;BME280;20066;48.764;9.176;2023-03-15T00:37:15;97881.50;;;5.12;69.36
550;BME280;20066;48.764;9.176;2023-03-15T00:39:47;97878.09;;;5.34;68.69
550;BME280;20066;48.764;9.176;2023-03-15T00:42:15;97879.81;;;5.00;69.77
550;BME280;20066;48.764;9.176;2023-03-15T00:44:43;97874.22;;;5.31;68.35
550;BME280;20066;48.764;9.176;2023-03-15T00:47:13;97890.91;;;5.74;67.01
550;BME280;20066;48.764;9.176;2023-03-15T00:49:41;97886.72;;;5.50;67.72
550;BME280;20066;48.764;9.176;2023-03-15T00:52:09;97888.38;;;4.90;69.03
550;BME280;20066;48.764;9.176;2023-03-15T00:54:38;97900.25;;;5.15;70.52
550;BME280;20066;48.764;9.176;2023-03-15T00:57:08;97906.72;;;5.37;68.51
550;BME280;20066;48.764;9.176;2023-03-15T00:59:36;97916.50;;;5.78;66.70
550;BME280;20066;48.764;9.176;2023-03-15T01:02:05;97921.75;;;5.49;66.77
550;BME280;20066;48.764;9.176;2023-03-15T01:04:34;97922.59;;;5.53;66.69
550;BME280;20066;48.764;9.176;2023-03-15T01:07:02;97930.28;;;5.80;64.66
550;BME280;20066;48.764;9.176;2023-03-15T01:09:30;97923.94;;;6.15;64.68
550;BME280;20066;48.764;9.176;2023-03-15T01:11:58;97922.09;;;5.24;66.41
550;BME280;20066;48.764;9.176;2023-03-15T01:14:27;97931.47;;;5.83;64.77
550;BME280;20066;48.764;9.176;2023-03-15T01:16:55;97936.03;;;5.14;65.97
550;BME280;20066;48.764;9.176;2023-03-15T01:19:23;97925.91;;;5.69;65.92
550;BME280;20066;48.764;9.176;2023-03-15T01:21:51;97935.56;;;5.77;65.57
550;BME280;20066;48.764;9.176;2023-03-15T01:24:19;97936.78;;;6.09;62.90
550;BME280;20066;48.764;9.176;2023-03-15T01:26:46;97940.59;;;6.35;62.19
550;BME280;20066;48.764;9.176;2023-03-15T01:29:14;97946.63;;;6.58;60.87
550;BME280;20066;48.764;9.176;2023-03-15T01:31:44;97940.03;;;5.69;62.73
550;BME280;20066;48.764;9.176;2023-03-15T01:34:12;97937.09;;;5.55;64.86
550;BME280;20066;48.764;9.176;2023-03-15T01:36:40;97939.44;;;6.06;62.91
550;BME280;20066;48.764;9.176;2023-03-15T01:39:08;97950.56;;;6.38;61.53
550;BME280;20066;48.764;9.176;2023-03-15T01:41:36;97951.28;;;6.35;61.10
550;BME280;20066;48.764;9.176;2023-03-15T01:44:07;97947.00;;;5.77;61.45
550;BME280;20066;48.764;9.176;2023-03-15T01:46:36;97945.38;;;4.66;65.81
550;BME280;20066;48.764;9.176;2023-03-15T01:49:07;97951.94;;;5.53;63.83
550;BME280;20066;48.764;9.176;2023-03-15T01:51:40;97961.00;;;4.87;64.69
550;BME280;20066;48.764;9.176;2023-03-15T01:54:14;97965.00;;;4.96;64.25
550;BME280;20066;48.764;9.176;2023-03-15T01:56:46;97965.66;;;4.20;68.04
550;BME280;20066;48.764;9.176;2023-03-15T01:59:23;97973.06;;;5.00;65.02
550;BME280;20066;48.764;9.176;2023-03-15T02:01:53;97969.69;;;4.14;67.17
550;BME280;20066;48.764;9.176;2023-03-15T02:04:27;97981.41;;;4.98;64.52
550;BME280;20066;48.764;9.176;2023-03-15T02:06:58;97970.91;;;3.85;68.44
550;BME280;20066;48.764;9.176;2023-03-15T02:09:33;97984.78;;;4.41;67.55
550;BME280;20066;48.764;9.176;2023-03-15T02:12:03;97982.25;;;3.66;69.13
550;BME280;20066;48.764;9.176;2023-03-15T02:14:32;97984.38;;;3.92;67.88
550;BME280;20066;48.764;9.176;2023-03-15T02:17:00;97984.44;;;3.33;71.12
550;BME280;20066;48.764;9.176;2023-03-15T02:19:41;97990.97;;;3.51;70.13
550;BME280;20066;48.764;9.176;2023-03-15T02:22:22;97985.34;;;3.25;71.19
550;BME280;20066;48.764;9.176;2023-03-15T02:24:57;97982.69;;;3.52;70.53
550;BME280;20066;48.764;9.176;2023-03-15T02:27:30;97993.28;;;3.37;70.64
550;BME280;20066;48.764;9.176;2023-03-15T02:30:00;97995.50;;;3.35;70.07
550;BME280;20066;48.764;9.176;2023-03-15T02:32:29;98000.09;;;3.66;67.79
550;BME280;20066;48.764;9.176;2023-03-15T02:34:58;98002.59;;;4.06;67.68
550;BME280;20066;48.764;9.176;2023-03-15T02:37:26;98003.66;;;3.42;69.50
550;BME280;20066;48.764;9.176;2023-03-15T02:39:54;98006.41;;;3.45;68.69
550;BME280;20066;48.764;9.176;2023-03-15T02:42:22;98014.06;;;4.10;68.01
550;BME280;20066;48.764;9.176;2023-03-15T02:44:52;98020.78;;;3.29;69.25
550;BME280;20066;48.764;9.176;2023-03-15T02:47:24;98029.16;;;3.31;69.00
550;BME280;20066;48.764;9.176;2023-03-15T02:49:53;98019.72;;;4.08;66.33
550;BME280;20066;48.764;9.176;2023-03-15T02:52:22;98032.25;;;4.39;63.34
550;BME280;20066;48.764;9.176;2023-03-15T02:54:49;98029.44;;;4.01;66.32
550;BME280;20066;48.764;9.176;2023-03-15T02:57:18;98036.63;;;4.47;64.45
550;BME280;20066;48.764;9.176;2023-03-15T02:59:46;98044.63;;;3.41;66.19
550;BME280;20066;48.764;9.176;2023-03-15T03:02:17;98056.53;;;3.75;66.26
550;BME280;20066;48.764;9.176;2023-03-15T03:04:46;98058.91;;;3.64;65.69
550;BME280;20066;48.764;9.176;2023-03-15T03:07:14;98062.03;;;3.38;67.75
550;BME280;20066;48.764;9.176;2023-03-15T03:09:42;98068.50;;;4.12;65.05
550;BME280;20066;48.764;9.176;2023-03-15T03:12:10;98064.56;;;3.63;67.46
550;BME280;20066;48.764;9.176;2023-03-15T03:14:38;98075.56;;;3.77;65.99
550;BME280;20066;48.764;9.176;2023-03-15T03:17:08;98078.16;;;3.73;66.93
550;BME280;20066;48.764;9.176;2023-03-15T03:19:38;98089.34;;;3.95;64.09
550;BME280;20066;48.764;9.176;2023-03-15T03:22:06;98084.59;;;3.88;64.75
550;BME280;20066;48.764;9.176;2023-03-15T03:24:34;98091.41;;;4.01;64.73
550;BME280;20066;48.764;9.176;2023-03-15T03:27:02;98093.00;;;3.74;65.57
550;BME280;20066;48.764;9.176;2023-03-15T03:29:30;98100.19;;;3.74;66.83
550;BME280;20066;48.764;9.176;2023-03-15T03:32:03;98108.53;;;4.47;63.74
550;BME280;20066;48.764;9.176;2023-03-15T03:34:32;98095.47;;;4.93;62.71
550;BME280;20066;48.764;9.176;2023-03-15T03:37:01;98105.53;;;4.49;62.99
550;BME280;20066;48.764;9.176;2023-03-15T03:39:29;98109.00;;;4.84;63.01
550;BME280;20066;48.764;9.176;2023-03-15T03:41:57;98109.56;;;4.43;62.93
550;BME280;20066;48.764;9.176;2023-03-15T03:44:25;98123.53;;;4.71;62.38
550;BME280;20066;48.764;9.176;2023-03-15T03:46:53;98123.72;;;4.62;62.40
550;BME280;20066;48.764;9.176;2023-03-15T03:49:20;98125.59;;;4.15;62.81
550;BME280;20066;48.764;9.176;2023-03-15T03:51:48;98129.19;;;4.07;63.84
550;BME280;20066;48.764;9.176;2023-03-15T03:54:18;98133.25;;;4.48;62.35
550;BME280;20066;48.764;9.176;2023-03-15T03:56:47;98138.75;;;4.71;60.73
550;BME280;20066;48.764;9.176;2023-03-15T03:59:15;98144.41;;;3.94;63.16
550;BME280;20066;48.764;9.176;2023-03-15T04:01:43;98139.63;;;4.59;61.14
550;BME280;20066;48.764;9.176;2023-03-15T04:04:11;98156.16;;;4.21;61.89
550;BME280;20066;48.764;9.176;2023-03-15T04:06:40;98151.25;;;4.23;62.05
550;BME280;20066;48.764;9.176;2023-03-15T04:09:12;98149.28;;;4.98;62.92
550;BME280;20066;48.764;9.176;2023-03-15T04:11:43;98153.31;;;4.14;61.71
550;BME280;20066;48.764;9.176;2023-03-15T04:14:13;98158.03;;;4.05;62.85
550;BME280;20066;48.764;9.176;2023-03-15T04:16:41;98169.25;;;4.73;61.31
550;BME280;20066;48.764;9.176;2023-03-15T04:19:09;98174.66;;;3.74;62.53
550;BME280;20066;48.764;9.176;2023-03-15T04:21:38;98180.31;;;4.00;64.23
550;BME280;20066;48.764;9.176;2023-03-15T04:24:13;98177.69;;;4.16;62.66
550;BME280;20066;48.764;9.176;2023-03-15T04:26:42;98181.63;;;3.38;64.16
550;BME280;20066;48.764;9.176;2023-03-15T04:29:10;98183.69;;;3.57;64.75
550;BME280;20066;48.764;9.176;2023-03-15T04:31:40;98189.94;;;4.48;60.39
550;BME280;20066;48.764;9.176;2023-03-15T04:34:08;98190.47;;;3.82;62.96
550;BME280;20066;48.764;9.176;2023-03-15T04:36:36;98190.38;;;3.79;62.87
550;BME280;20066;48.764;9.176;2023-03-15T04:39:04;98186.09;;;3.62;64.39
550;BME280;20066;48.764;9.176;2023-03-15T04:41:33;98191.19;;;3.95;63.34
550;BME280;20066;48.764;9.176;2023-03-15T04:44:03;98192.75;;;3.04;65.84
550;BME280;20066;48.764;9.176;2023-03-15T04:46:32;98201.16;;;2.94;66.97
550;BME280;20066;48.764;9.176;2023-03-15T04:49:00;98196.53;;;2.91;67.05
550;BME280;20066;48.764;9.176;2023-03-15T04:51:30;98198.72;;;3.01;66.70
550;BME280;20066;48.764;9.176;2023-03-15T04:53:59;98207.88;;;3.40;63.66
550;BME280;20066;48.764;9.176;2023-03-15T04:56:28;98199.50;;;3.66;64.12
550;BME280;20066;48.764;9.176;2023-03-15T04:58:57;98201.59;;;3.08;63.84
550;BME280;20066;48.764;9.176;2023-03-15T05:01:29;98202.34;;;3.33;63.34
550;BME280;20066;48.764;9.176;2023-03-15T05:03:58;98197.34;;;3.43;63.39
550;BME280;20066;48.764;9.176;2023-03-15T05:06:26;98200.03;;;2.70;66.10
550;BME280;20066;48.764;9.176;2023-03-15T05:08:55;98193.75;;;2.99;65.40
550;BME280;20066;48.764;9.176;2023-03-15T05:11:23;98188.88;;;3.01;65.31
550;BME280;20066;48.764;9.176;2023-03-15T05:13:51;98189.94;;;3.37;65.13
550;BME280;20066;48.764;9.176;2023-03-15T05:16:23;98193.41;;;2.64;65.52
550;BME280;20066;48.764;9.176;2023-03-15T05:18:52;98193.63;;;2.84;66.29
550;BME280;20066;48.764;9.176;2023-03-15T05:21:22;98190.53;;;2.69;64.81
550;BME280;20066;48.764;9.176;2023-03-15T05:23:50;98194.41;;;2.96;65.40
550;BME280;20066;48.764;9.176;2023-03-15T05:26:18;98194.13;;;3.50;63.77
550;BME280;20066;48.764;9.176;2023-03-15T05:28:45;98189.34;;;3.56;62.44
550;BME280;20066;48.764;9.176;2023-03-15T05:31:13;98197.00;;;3.85;61.26
550;BME280;20066;48.764;9.176;2023-03-15T05:33:41;98206.91;;;3.72;62.49
550;BME280;20066;48.764;9.176;2023-03-15T05:36:14;98201.31;;;3.89;61.47
550;BME280;20066;48.764;9.176;2023-03-15T05:38:43;98207.44;;;3.78;60.98
550;BME280;20066;48.764;9.176;2023-03-15T05:41:11;98204.66;;;3.86;60.54
550;BME280;20066;48.764;9.176;2023-03-15T05:43:43;98204.88;;;3.41;62.62
550;BME280;20066;48.764;9.176;2023-03-15T05:46:11;98205.22;;;3.40;62.17
550;BME280;20066;48.764;9.176;2023-03-15T05:48:40;98206.78;;;3.29;62.48
550;BME280;20066;48.764;9.176;2023-03-15T05:51:08;98211.56;;;2.87;63.23
550;BME280;20066;48.764;9.176;2023-03-15T05:53:37;98214.00;;;3.16;62.29
550;BME280;20066;48.764;9.176;2023-03-15T05:56:06;98217.66;;;2.87;62.45
550;BME280;20066;48.764;9.176;2023-03-15T05:58:34;98218.38;;;3.61;61.62
550;BME280;20066;48.764;9.176;2023-03-15T06:01:03;98221.19;;;4.36;59.51
550;BME280;20066;48.764;9.176;2023-03-15T06:03:31;98221.50;;;4.34;59.33
550;BME280;20066;48.764;9.176;2023-03-15T06:05:59;98222.97;;;4.91;58.94
550;BME280;20066;48.764;9.176;2023-03-15T06:08:27;98221.91;;;4.80;60.37
550;BME280;20066;48.764;9.176;2023-03-15T06:10:56;98222.25;;;4.78;59.39
550;BME280;20066;48.764;9.176;2023-03-15T06:13:24;98229.75;;;4.73;60.93
550;BME280;20066;48.764;9.176;2023-03-15T06:15:52;98233.94;;;4.58;61.79
550;BME280;20066;48.764;9.176;2023-03-15T06:18:20;98234.28;;;5.03;61.26
550;BME280;20066;48.764;9.176;2023-03-15T06:20:48;98228.91;;;4.84;62.06
550;BME280;20066;48.764;9.176;2023-03-15T06:23:16;98233.53;;;4.72;60.28
550;BME280;20066;48.764;9.176;2023-03-15T06:25:44;98232.66;;;4.52;59.34
550;BME280;20066;48.764;9.176;2023-03-15T06:30:49;98229.91;;;4.20;58.61
550;BME280;20066;48.764;9.176;2023-03-15T06:33:17;98242.13;;;4.09;59.55
550;BME280;20066;48.764;9.176;2023-03-15T06:35:45;98240.22;;;3.42;62.68
550;BME280;20066;48.764;9.176;2023-03-15T06:38:13;98249.00;;;3.06;64.29
550;BME280;20066;48.764;9.176;2023-03-15T06:40:42;98250.16;;;2.84;63.64
550;BME280;20066;48.764;9.176;2023-03-15T06:43:11;98244.66;;;3.01;64.03
550;BME280;20066;48.764;9.176;2023-03-15T06:45:44;98246.44;;;2.97;63.08
550;BME280;20066;48.764;9.176;2023-03-15T06:48:13;98240.91;;;2.90;64.10
550;BME280;20066;48.764;9.176;2023-03-15T06:50:41;98247.72;;;2.67;64.36
550;BME280;20066;48.764;9.176;2023-03-15T06:53:13;98254.06;;;2.87;63.17
550;BME280;20066;48.764;9.176;2023-03-15T06:55:41;98251.75;;;2.97;64.18
550;BME280;20066;48.764;9.176;2023-03-15T06:58:09;98262.69;;;2.96;64.13
550;BME280;20066;48.764;9.176;2023-03-15T07:00:38;98251.63;;;2.82;64.18
550;BME280;20066;48.764;9.176;2023-03-15T07:03:06;98249.56;;;3.76;62.68
550;BME280;20066;48.764;9.176;2023-03-15T07:05:36;98251.63;;;3.18;62.72
550;BME280;20066;48.764;9.176;2023-03-15T07:08:04;98250.88;;;3.30;63.17
550;BME280;20066;48.764;9.176;2023-03-15T07:10:32;98253.34;;;3.63;61.83
550;BME280;20066;48.764;9.176;2023-03-15T07:13:01;98246.75;;;2.96;63.22
550;BME280;20066;48.764;9.176;2023-03-15T07:15:30;98253.97;;;3.20;63.23
550;BME280;20066;48.764;9.176;2023-03-15T07:17:59;98263.38;;;3.29;62.71
550;BME280;20066;48.764;9.176;2023-03-15T07:20:27;98269.44;;;3.54;62.14
550;BME280;20066;48.764;9.176;2023-03-15T07:22:58;98264.56;;;3.56;61.10
550;BME280;20066;48.764;9.176;2023-03-15T07:25:26;98268.41;;;3.83;61.01
550;BME280;20066;48.764;9.176;2023-03-15T07:27:54;98268.97;;;3.76;61.35
550;BME280;20066;48.764;9.176;2023-03-15T07:30:22;98280.00;;;4.30;59.74
550;BME280;20066;48.764;9.176;2023-03-15T07:32:50;98288.38;;;3.40;61.24
550;BME280;20066;48.764;9.176;2023-03-15T07:35:18;98287.91;;;3.63;61.71
550;BME280;20066;48.764;9.176;2023-03-15T07:37:47;98284.94;;;3.76;60.95
550;BME280;20066;48.764;9.176;2023-03-15T07:40:16;98282.97;;;3.49;62.02
550;BME280;20066;48.764;9.176;2023-03-15T07:42:44;98292.75;;;3.85;60.74
550;BME280;20066;48.764;9.176;2023-03-15T07:45:12;98297.56;;;3.55;61.33
550;BME280;20066;48.764;9.176;2023-03-15T07:47:40;98305.31;;;3.24;62.08
550;BME280;20066;48.764;9.176;2023-03-15T07:50:09;98291.38;;;3.39;62.88
550;BME280;20066;48.764;9.176;2023-03-15T07:52:38;98299.56;;;4.10;60.68
550;BME280;20066;48.764;9.176;2023-03-15T07:55:07;98294.72;;;4.00;62.54
550;BME280;20066;48.764;9.176;2023-03-15T07:57:37;98294.97;;;4.23;61.29
550;BME280;20066;48.764;9.176;2023-03-15T08:00:05;98298.38;;;4.36;60.91
550;BME280;20066;48.764;9.176;2023-03-15T08:02:35;98292.66;;;3.69;61.38
550;BME280;20066;48.764;9.176;2023-03-15T08:05:03;98285.06;;;3.68;62.07
550;BME280;20066;48.764;9.176;2023-03-15T08:07:31;98293.59;;;4.41;59.31
550;BME280;20066;48.764;9.176;2023-03-15T08:09:59;98297.91;;;4.89;58.21
550;BME280;20066;48.764;9.176;2023-03-15T08:12:28;98306.00;;;4.49;60.07
550;BME280;20066;48.764;9.176;2023-03-15T08:14:58;98297.50;;;6.23;55.15
550;BME280;20066;48.764;9.176;2023-03-15T08:17:26;98299.47;;;7.33;51.95
550;BME280;20066;48.764;9.176;2023-03-15T08:19:53;98301.03;;;8.50;48.85
550;BME280;20066;48.764;9.176;2023-03-15T08:22:21;98302.81;;;8.69;47.56
550;BME280;20066;48.764;9.176;2023-03-15T08:24:49;98312.94;;;9.89;44.79
550;BME280;20066;48.764;9.176;2023-03-15T08:27:18;98304.25;;;12.61;39.84
550;BME280;20066;48.764;9.176;2023-03-15T08:29:46;98297.81;;;13.07;37.13
550;BME280;20066;48.764;9.176;2023-03-15T08:32:17;98301.47;;;12.75;37.02
550;BME280;20066;48.764;9.176;2023-03-15T08:34:45;98310.06;;;15.26;33.97
550;BME280;20066;48.764;9.176;2023-03-15T08:37:13;98317.59;;;14.27;34.00
550;BME280;20066;48.764;9.176;2023-03-15T08:39:41;98312.09;;;14.34;33.09
550;BME280;20066;48.764;9.176;2023-03-15T08:42:09;98317.44;;;10.32;39.97
550;BME280;20066;48.764;9.176;2023-03-15T08:44:37;98312.97;;;10.90;40.20
550;BME280;20066;48.764;9.176;2023-03-15T08:47:05;98313.31;;;12.19;38.15
550;BME280;20066;48.764;9.176;2023-03-15T08:49:34;98313.03;;;11.68;38.11
550;BME280;20066;48.764;9.176;2023-03-15T08:52:03;98310.53;;;13.10;35.55
550;BME280;20066;48.764;9.176;2023-03-15T08:54:30;98311.22;;;13.21;35.25
550;BME280;20066;48.764;9.176;2023-03-15T08:56:58;98318.03;;;11.37;37.33
550;BME280;20066;48.764;9.176;2023-03-15T08:59:26;98325.34;;;11.54;37.22
550;BME280;20066;48.764;9.176;2023-03-15T09:01:58;98323.47;;;9.53;40.51
550;BME280;20066;48.764;9.176;2023-03-15T09:04:27;98329.84;;;8.90;41.98
550;BME280;20066;48.764;9.176;2023-03-15T09:06:56;98335.88;;;7.64;45.24
550;BME280;20066;48.764;9.176;2023-03-15T09:09:24;98328.38;;;7.73;45.65
550;BME280;20066;48.764;9.176;2023-03-15T09:11:52;98342.75;;;8.78;43.61
550;BME280;20066;48.764;9.176;2023-03-15T09:14:20;98344.97;;;10.15;41.13
550;BME280;20066;48.764;9.176;2023-03-15T09:16:48;98338.72;;;10.76;39.69
550;BME280;20066;48.764;9.176;2023-03-15T09:19:16;98338.75;;;9.46;40.35
550;BME280;20066;48.764;9.176;2023-03-15T09:21:44;98341.78;;;8.63;43.36
550;BME280;20066;48.764;9.176;2023-03-15T09:24:14;98347.09;;;8.60;44.00
550;BME280;20066;48.764;9.176;2023-03-15T09:26:42;98340.97;;;7.73;45.27
550;BME280;20066;48.764;9.176;2023-03-15T09:29:10;98338.72;;;7.26;45.93
550;BME280;20066;48.764;9.176;2023-03-15T09:31:38;98338.91;;;6.52;47.97
550;BME280;20066;48.764;9.176;2023-03-15T09:34:06;98348.41;;;7.11;48.19
550;BME280;20066;48.764;9.176;2023-03-15T09:36:33;98346.19;;;6.94;47.35
550;BME280;20066;48.764;9.176;2023-03-15T09:39:01;98339.34;;;7.91;46.00
550;BME280;20066;48.764;9.176;2023-03-15T09:41:39;98360.56;;;8.67;43.79
550;BME280;20066;48.764;9.176;2023-03-15T09:44:15;98354.53;;;8.73;43.35
550;BME280;20066;48.764;9.176;2023-03-15T09:46:56;98356.25;;;8.55;43.77
550;BME280;20066;48.764;9.176;2023-03-15T09:49:32;98346.13;;;6.52;48.15
550;BME280;20066;48.764;9.176;2023-03-15T09:52:11;98352.69;;;7.16;46.97
550;BME280;20066;48.764;9.176;2023-03-15T09:54:43;98359.78;;;6.47;48.69
550;BME280;20066;48.764;9.176;2023-03-15T09:57:17;98356.38;;;7.30;47.99
550;BME280;20066;48.764;9.176;2023-03-15T09:59:51;98368.31;;;7.14;47.60
550;BME280;20066;48.764;9.176;2023-03-15T10:02:23;98349.91;;;7.09;47.06
550;BME280;20066;48.764;9.176;2023-03-15T10:04:55;98363.50;;;7.23;46.60
550;BME280;20066;48.764;9.176;2023-03-15T10:07:25;98353.69;;;8.06;45.63
550;BME280;20066;48.764;9.176;2023-03-15T10:09:53;98354.84;;;7.29;46.72
550;BME280;20066;48.764;9.176;2023-03-15T10:12:29;98356.06;;;8.71;44.10
550;BME280;20066;48.764;9.176;2023-03-15T10:15:13;98364.28;;;8.55;44.16
550;BME280;20066;48.764;9.176;2023-03-15T10:17:48;98354.38;;;7.73;45.25
550;BME280;20066;48.764;9.176;2023-03-15T10:20:22;98353.22;;;7.48;45.32
550;BME280;20066;48.764;9.176;2023-03-15T10:22:55;98350.72;;;8.74;42.76
550;BME280;20066;48.764;9.176;2023-03-15T10:25:26;98337.63;;;8.06;44.09
550;BME280;20066;48.764;9.176;2023-03-15T10:27:58;98341.91;;;8.74;42.81
550;BME280;20066;48.764;9.176;2023-03-15T10:30:29;98333.41;;;9.02;41.60
550;BME280;20066;48.764;9.176;2023-03-15T10:33:00;98343.03;;;10.12;40.03
550;BME280;20066;48.764;9.176;2023-03-15T10:35:29;98353.66;;;9.91;40.44
550;BME280;20066;48.764;9.176;2023-03-15T10:37:58;98344.41;;;8.60;41.54
550;BME280;20066;48.764;9.176;2023-03-15T10:40:39;98339.97;;;9.11;40.91
550;BME280;20066;48.764;9.176;2023-03-15T10:43:20;98338.66;;;10.59;38.56
550;BME280;20066;48.764;9.176;2023-03-15T10:46:00;98333.81;;;9.07;40.85
550;BME280;20066;48.764;9.176;2023-03-15T10:48:29;98341.03;;;9.95;41.22
550;BME280;20066;48.764;9.176;2023-03-15T10:51:03;98338.44;;;11.63;38.07
550;BME280;20066;48.764;9.176;2023-03-15T10:53:32;98335.28;;;10.87;37.59
550;BME280;20066;48.764;9.176;2023-03-15T10:56:06;98324.63;;;10.14;39.23
550;BME280;20066;48.764;9.176;2023-03-15T10:58:46;98329.47;;;10.74;38.21
550;BME280;20066;48.764;9.176;2023-03-15T11:01:34;98348.72;;;10.00;39.73
550;BME280;20066;48.764;9.176;2023-03-15T11:04:13;98331.56;;;9.57;39.79
550;BME280;20066;48.764;9.176;2023-03-15T11:06:44;98338.59;;;9.24;41.28
550;BME280;20066;48.764;9.176;2023-03-15T11:09:14;98336.72;;;9.83;40.19
550;BME280;20066;48.764;9.176;2023-03-15T11:12:03;98329.19;;;9.48;40.91
550;BME280;20066;48.764;9.176;2023-03-15T11:14:35;98333.53;;;9.63;40.77
550;BME280;20066;48.764;9.176;2023-03-15T11:17:07;98336.47;;;9.48;40.87
550;BME280;20066;48.764;9.176;2023-03-15T11:19:39;98332.25;;;9.47;40.66
550;BME280;20066;48.764;9.176;2023-03-15T11:22:11;98328.16;;;8.75;42.12
550;BME280;20066;48.764;9.176;2023-03-15T11:24:40;98330.28;;;8.63;42.62
550;BME280;20066;48.764;9.176;2023-03-15T11:27:10;98332.16;;;8.59;42.24
550;BME280;20066;48.764;9.176;2023-03-15T11:29:42;98332.41;;;8.80;41.93
550;BME280;20066;48.764;9.176;2023-03-15T11:32:15;98329.66;;;9.10;40.80
550;BME280;20066;48.764;9.176;2023-03-15T11:34:47;98331.88;;;9.48;40.32
550;BME280;20066;48.764;9.176;2023-03-15T11:37:21;98335.66;;;9.95;39.57
550;BME280;20066;48.764;9.176;2023-03-15T11:39:56;98320.34;;;9.00;41.33
550;BME280;20066;48.764;9.176;2023-03-15T11:42:43;98326.38;;;8.23;42.12
550;BME280;20066;48.764;9.176;2023-03-15T11:45:19;98321.81;;;9.38;40.27
550;BME280;20066;48.764;9.176;2023-03-15T11:47:53;98316.31;;;8.80;40.70
550;BME280;20066;48.764;9.176;2023-03-15T11:50:23;98323.69;;;9.34;40.71
550;BME280;20066;48.764;9.176;2023-03-15T11:52:51;98324.72;;;9.66;39.90
550;BME280;20066;48.764;9.176;2023-03-15T11:57:50;98325.97;;;9.80;38.80
550;BME280;20066;48.764;9.176;2023-03-15T12:03:38;98331.38;;;9.87;37.34
550;BME280;20066;48.764;9.176;2023-03-15T12:09:38;98331.25;;;10.31;36.92
550;BME280;20066;48.764;9.176;2023-03-15T12:12:34;98326.97;;;9.10;38.28
550;BME280;20066;48.764;9.176;2023-03-15T12:15:05;98345.72;;;9.54;37.77
550;BME280;20066;48.764;9.176;2023-03-15T12:17:37;98338.66;;;9.86;37.23
550;BME280;20066;48.764;9.176;2023-03-15T12:20:17;98335.16;;;10.40;36.85
550;BME280;20066;48.764;9.176;2023-03-15T12:22:50;98332.94;;;10.74;36.43
550;BME280;20066;48.764;9.176;2023-03-15T12:25:31;98337.63;;;11.16;35.61
550;BME280;20066;48.764;9.176;2023-03-15T12:28:20;98330.84;;;10.25;36.57
550;BME280;20066;48.764;9.176;2023-03-15T12:30:53;98338.09;;;10.18;37.15
550;BME280;20066;48.764;9.176;2023-03-15T12:33:23;98329.34;;;9.73;37.81
550;BME280;20066;48.764;9.176;2023-03-15T12:35:58;98333.00;;;10.05;36.58
550;BME280;20066;48.764;9.176;2023-03-15T12:38:34;98333.00;;;10.05;37.02
550;BME280;20066;48.764;9.176;2023-03-15T12:41:06;98334.94;;;9.50;38.09
550;BME280;20066;48.764;9.176;2023-03-15T12:43:36;98330.31;;;10.05;37.81
550;BME280;20066;48.764;9.176;2023-03-15T12:46:05;98337.03;;;9.75;38.65
550;BME280;20066;48.764;9.176;2023-03-15T12:48:33;98326.84;;;9.43;39.64
550;BME280;20066;48.764;9.176;2023-03-15T12:51:09;98332.16;;;9.87;38.50
550;BME280;20066;48.764;9.176;2023-03-15T12:53:49;98328.84;;;10.15;37.82
550;BME280;20066;48.764;9.176;2023-03-15T12:56:29;98338.63;;;9.83;39.31
550;BME280;20066;48.764;9.176;2023-03-15T12:59:03;98331.31;;;9.25;39.79
550;BME280;20066;48.764;9.176;2023-03-15T13:01:33;98333.34;;;9.42;40.60
550;BME280;20066;48.764;9.176;2023-03-15T13:04:02;98351.16;;;9.61;40.34
550;BME280;20066;48.764;9.176;2023-03-15T13:06:42;98355.78;;;9.64;39.76
550;BME280;20066;48.764;9.176;2023-03-15T13:09:21;98354.09;;;9.05;41.94
550;BME280;20066;48.764;9.176;2023-03-15T13:11:58;98353.19;;;8.27;47.64
550;BME280;20066;48.764;9.176;2023-03-15T13:14:37;98353.34;;;8.07;49.80
550;BME280;20066;48.764;9.176;2023-03-15T13:17:17;98345.47;;;8.22;50.46
550;BME280;20066;48.764;9.176;2023-03-15T13:19:50;98348.09;;;7.62;53.03
550;BME280;20066;48.764;9.176;2023-03-15T13:22:26;98339.06;;;8.93;49.41
550;BME280;20066;48.764;9.176;2023-03-15T13:25:03;98341.38;;;8.61;48.64
550;BME280;20066;48.764;9.176;2023-03-15T13:27:44;98341.41;;;8.98;48.83
550;BME280;20066;48.764;9.176;2023-03-15T13:30:32;98349.25;;;8.47;50.48
550;BME280;20066;48.764;9.176;2023-03-15T13:33:05;98358.06;;;8.47;51.20
550;BME280;20066;48.764;9.176;2023-03-15T13:35:41;98361.88;;;8.76;50.36
550;BME280;20066;48.764;9.176;2023-03-15T13:38:29;98353.38;;;9.08;50.35
550;BME280;20066;48.764;9.176;2023-03-15T13:40:58;98360.91;;;8.62;51.02
550;BME280;20066;48.764;9.176;2023-03-15T13:43:30;98355.56;;;8.62;51.28
550;BME280;20066;48.764;9.176;2023-03-15T13:45:59;98363.00;;;8.15;52.23
550;BME280;20066;48.764;9.176;2023-03-15T13:48:28;98367.66;;;7.66;52.14
550;BME280;20066;48.764;9.176;2023-03-15T13:51:02;98367.75;;;7.73;53.33
550;BME280;20066;48.764;9.176;2023-03-15T13:53:34;98371.28;;;7.77;54.13
550;BME280;20066;48.764;9.176;2023-03-15T13:56:17;98376.75;;;7.61;54.44
550;BME280;20066;48.764;9.176;2023-03-15T13:58:45;98375.28;;;6.80;56.75
550;BME280;20066;48.764;9.176;2023-03-15T14:01:15;98368.75;;;7.16;56.15